Aérodrome :
LOGIN :

S'inscrire | Disclaimer

   EN    FR    IT 

 










Légende :    VFR   VFR Marginal   IFR   IFR Intensif   IFR Très Intensif
Visi : 
Plafond : 
>= 8 km
>= 3000ft
5 à 8 km
1000 à 3000 ft
1500m à 5 km
500 à 1000 ft
800 à 1500m
200 à 500 ft
< 800m
< 200 ft
Symboles :   Orages  Brouillard  Fortes neiges  Fortes précipitations  Vent > 20 kt
SIGMETs :   Divers  Orages  Givrage  Turbulence  Onde Orograph.  Cendres Volcan.







- Altitude de l'aérodrome : 776 ft
- Code IATA : RMS


ETAR - Ramstein Air Base

DERNIER METAR :
  • 161456Z 24005KT 9999 CLR 16/10 A3031 RMK AO2A SLP275 T01610104 57013 $

METARs EXPIRÉS :
  • 161356Z 23003KT 9999 CLR 16/11 A3032 RMK AO2A SLP278 T01590106 $
  • 161256Z 23004KT 9999 CLR 15/04 A3033 RMK AO2A SLP283 $
  • 161156Z 24004KT 9999 CLR 12/03 A3035 RMK AO2A SLP291 10118 21059 56012 $

TAF TAF ETAR
Valide du 16 à 10h jusqu'au 17 à 16h UTC


161003Z 1610/1716 VRB06KT 9999 SKC QNH3027INS TX15/1613Z TNM06/1706Z
Pas de NOTAMs connus pour ce terrain.



MET'MAP, la Météo Aéronautique d'un coup d'oeil ! - Copyright ORBIFLY Décembre 2007 - Disclaimer

ORBIFLY MET'MAP TEAM :

Programmation & Développement : Alexandra Zaïnal
Conception & Développement : Baudouin d'Aumeries
Co-Programmation & Développement : Marc-Olivier Méhu
Soutien technique & logistique : Manuel Goepfert

Contact : metmap@orbifly.com




SOURCES & CREDITS :

   NOAA